sensor_id;sensor_type;location;lat;lon;timestamp;temperature;humidity
64062;DHT22;50308;47.438;-1.528;2023-04-08T00:01:10;10.60;77.50
64062;DHT22;50308;47.438;-1.528;2023-04-08T00:03:35;10.40;77.60
64062;DHT22;50308;47.438;-1.528;2023-04-08T00:06:01;10.40;77.60
64062;DHT22;50308;47.438;-1.528;2023-04-08T00:08:28;10.30;77.50
64062;DHT22;50308;47.438;-1.528;2023-04-08T00:10:54;10.20;77.10
64062;DHT22;50308;47.438;-1.528;2023-04-08T00:13:20;10.30;77.40
64062;DHT22;50308;47.438;-1.528;2023-04-08T00:15:45;10.20;77.50
64062;DHT22;50308;47.438;-1.528;2023-04-08T00:18:13;10.10;77.50
64062;DHT22;50308;47.438;-1.528;2023-04-08T00:20:40;10.20;77.50
64062;DHT22;50308;47.438;-1.528;2023-04-08T00:23:05;10.20;78.50
64062;DHT22;50308;47.438;-1.528;2023-04-08T00:25:31;10.20;78.40
64062;DHT22;50308;47.438;-1.528;2023-04-08T00:27:57;10.20;77.20
64062;DHT22;50308;47.438;-1.528;2023-04-08T00:30:22;10.20;77.10
64062;DHT22;50308;47.438;-1.528;2023-04-08T00:32:48;10.20;77.20
64062;DHT22;50308;47.438;-1.528;2023-04-08T00:35:14;10.20;77.10
64062;DHT22;50308;47.438;-1.528;2023-04-08T00:37:39;10.20;77.30
64062;DHT22;50308;47.438;-1.528;2023-04-08T00:40:06;10.20;77.30
64062;DHT22;50308;47.438;-1.528;2023-04-08T00:42:32;10.20;77.10
64062;DHT22;50308;47.438;-1.528;2023-04-08T00:44:57;10.20;77.30
64062;DHT22;50308;47.438;-1.528;2023-04-08T00:47:23;10.10;77.00
64062;DHT22;50308;47.438;-1.528;2023-04-08T00:49:49;10.20;77.20
64062;DHT22;50308;47.438;-1.528;2023-04-08T00:52:15;10.20;76.80
64062;DHT22;50308;47.438;-1.528;2023-04-08T00:54:41;10.20;77.00
64062;DHT22;50308;47.438;-1.528;2023-04-08T00:57:07;10.30;77.00
64062;DHT22;50308;47.438;-1.528;2023-04-08T00:59:33;10.30;76.70
64062;DHT22;50308;47.438;-1.528;2023-04-08T01:02:11;10.40;77.00
64062;DHT22;50308;47.438;-1.528;2023-04-08T01:09:38;10.40;76.80
64062;DHT22;50308;47.438;-1.528;2023-04-08T01:12:08;10.50;77.10
64062;DHT22;50308;47.438;-1.528;2023-04-08T01:14:39;10.40;77.00
64062;DHT22;50308;47.438;-1.528;2023-04-08T01:17:08;10.40;76.80
64062;DHT22;50308;47.438;-1.528;2023-04-08T01:19:37;10.40;77.00
64062;DHT22;50308;47.438;-1.528;2023-04-08T01:22:28;10.40;76.60
64062;DHT22;50308;47.438;-1.528;2023-04-08T01:25:04;10.40;77.00
64062;DHT22;50308;47.438;-1.528;2023-04-08T01:27:31;10.40;77.00
64062;DHT22;50308;47.438;-1.528;2023-04-08T01:29:58;10.40;76.90
64062;DHT22;50308;47.438;-1.528;2023-04-08T01:32:25;10.40;76.90
64062;DHT22;50308;47.438;-1.528;2023-04-08T01:34:53;10.40;77.00
64062;DHT22;50308;47.438;-1.528;2023-04-08T01:37:20;10.40;76.80
64062;DHT22;50308;47.438;-1.528;2023-04-08T01:39:48;10.30;76.90
64062;DHT22;50308;47.438;-1.528;2023-04-08T01:42:14;10.40;76.70
64062;DHT22;50308;47.438;-1.528;2023-04-08T01:44:41;10.40;76.40
64062;DHT22;50308;47.438;-1.528;2023-04-08T01:47:09;10.30;76.60
64062;DHT22;50308;47.438;-1.528;2023-04-08T01:49:38;10.30;76.70
64062;DHT22;50308;47.438;-1.528;2023-04-08T01:52:04;10.30;76.90
64062;DHT22;50308;47.438;-1.528;2023-04-08T01:54:31;10.30;76.70
64062;DHT22;50308;47.438;-1.528;2023-04-08T01:56:57;10.30;76.80
64062;DHT22;50308;47.438;-1.528;2023-04-08T01:59:29;10.30;76.80
64062;DHT22;50308;47.438;-1.528;2023-04-08T02:01:57;10.30;76.90
64062;DHT22;50308;47.438;-1.528;2023-04-08T02:04:23;10.30;76.60
64062;DHT22;50308;47.438;-1.528;2023-04-08T02:06:49;10.20;76.60
64062;DHT22;50308;47.438;-1.528;2023-04-08T02:09:15;10.20;76.60
64062;DHT22;50308;47.438;-1.528;2023-04-08T02:11:40;10.30;76.70
64062;DHT22;50308;47.438;-1.528;2023-04-08T02:14:06;10.20;76.30
64062;DHT22;50308;47.438;-1.528;2023-04-08T02:16:48;10.30;76.30
64062;DHT22;50308;47.438;-1.528;2023-04-08T02:19:19;10.20;76.60
64062;DHT22;50308;47.438;-1.528;2023-04-08T02:21:51;10.20;76.50
64062;DHT22;50308;47.438;-1.528;2023-04-08T02:24:18;10.20;76.50
64062;DHT22;50308;47.438;-1.528;2023-04-08T02:26:45;10.20;76.20
64062;DHT22;50308;47.438;-1.528;2023-04-08T02:29:14;10.20;76.50
64062;DHT22;50308;47.438;-1.528;2023-04-08T02:31:42;10.10;76.50
64062;DHT22;50308;47.438;-1.528;2023-04-08T02:34:10;10.20;76.50
64062;DHT22;50308;47.438;-1.528;2023-04-08T02:36:36;10.20;77.80
64062;DHT22;50308;47.438;-1.528;2023-04-08T02:39:03;10.20;76.50
64062;DHT22;50308;47.438;-1.528;2023-04-08T02:41:29;10.20;76.60
64062;DHT22;50308;47.438;-1.528;2023-04-08T02:43:56;10.20;76.60
64062;DHT22;50308;47.438;-1.528;2023-04-08T02:46:21;10.20;76.60
64062;DHT22;50308;47.438;-1.528;2023-04-08T02:48:47;10.20;76.50
64062;DHT22;50308;47.438;-1.528;2023-04-08T02:51:13;10.20;76.30
64062;DHT22;50308;47.438;-1.528;2023-04-08T02:53:39;10.20;76.20
64062;DHT22;50308;47.438;-1.528;2023-04-08T02:56:05;10.10;76.20
64062;DHT22;50308;47.438;-1.528;2023-04-08T02:58:30;10.20;76.30
64062;DHT22;50308;47.438;-1.528;2023-04-08T03:00:56;10.20;76.30
64062;DHT22;50308;47.438;-1.528;2023-04-08T03:03:22;10.20;76.40
64062;DHT22;50308;47.438;-1.528;2023-04-08T03:05:54;10.10;76.40
64062;DHT22;50308;47.438;-1.528;2023-04-08T03:08:20;10.10;76.40
64062;DHT22;50308;47.438;-1.528;2023-04-08T03:10:46;10.10;76.40
64062;DHT22;50308;47.438;-1.528;2023-04-08T03:13:12;10.20;76.30
64062;DHT22;50308;47.438;-1.528;2023-04-08T03:15:37;10.10;76.20
64062;DHT22;50308;47.438;-1.528;2023-04-08T03:18:03;10.10;76.20
64062;DHT22;50308;47.438;-1.528;2023-04-08T03:20:29;10.20;76.20
64062;DHT22;50308;47.438;-1.528;2023-04-08T03:22:54;10.20;76.30
64062;DHT22;50308;47.438;-1.528;2023-04-08T03:25:20;10.10;76.20
64062;DHT22;50308;47.438;-1.528;2023-04-08T03:27:46;10.10;76.60
64062;DHT22;50308;47.438;-1.528;2023-04-08T03:30:11;10.10;76.40
64062;DHT22;50308;47.438;-1.528;2023-04-08T03:32:37;10.10;76.20
64062;DHT22;50308;47.438;-1.528;2023-04-08T03:35:04;10.20;76.30
64062;DHT22;50308;47.438;-1.528;2023-04-08T03:37:30;10.20;76.00
64062;DHT22;50308;47.438;-1.528;2023-04-08T03:39:55;10.20;75.70
64062;DHT22;50308;47.438;-1.528;2023-04-08T03:42:22;10.20;75.70
64062;DHT22;50308;47.438;-1.528;2023-04-08T03:44:47;10.20;76.20
64062;DHT22;50308;47.438;-1.528;2023-04-08T03:47:13;10.20;76.20
64062;DHT22;50308;47.438;-1.528;2023-04-08T03:49:39;10.20;75.70
64062;DHT22;50308;47.438;-1.528;2023-04-08T03:52:04;10.20;75.70
64062;DHT22;50308;47.438;-1.528;2023-04-08T03:54:30;10.20;75.70
64062;DHT22;50308;47.438;-1.528;2023-04-08T03:56:56;10.20;75.70
64062;DHT22;50308;47.438;-1.528;2023-04-08T03:59:22;10.20;76.00
64062;DHT22;50308;47.438;-1.528;2023-04-08T04:01:47;10.30;75.80
64062;DHT22;50308;47.438;-1.528;2023-04-08T04:04:13;10.30;76.00
64062;DHT22;50308;47.438;-1.528;2023-04-08T04:06:39;10.30;76.00
64062;DHT22;50308;47.438;-1.528;2023-04-08T04:09:05;10.40;75.80
64062;DHT22;50308;47.438;-1.528;2023-04-08T04:11:30;10.40;75.80
64062;DHT22;50308;47.438;-1.528;2023-04-08T04:13:58;10.40;76.10
64062;DHT22;50308;47.438;-1.528;2023-04-08T04:16:24;10.40;75.80
64062;DHT22;50308;47.438;-1.528;2023-04-08T04:18:51;10.30;75.80
64062;DHT22;50308;47.438;-1.528;2023-04-08T04:21:17;10.30;75.80
64062;DHT22;50308;47.438;-1.528;2023-04-08T04:23:43;10.40;75.80
64062;DHT22;50308;47.438;-1.528;2023-04-08T04:26:10;10.40;75.80
64062;DHT22;50308;47.438;-1.528;2023-04-08T04:28:36;10.30;75.80
64062;DHT22;50308;47.438;-1.528;2023-04-08T04:31:01;10.30;75.80
64062;DHT22;50308;47.438;-1.528;2023-04-08T04:33:27;10.40;75.80
64062;DHT22;50308;47.438;-1.528;2023-04-08T04:35:53;10.40;75.80
64062;DHT22;50308;47.438;-1.528;2023-04-08T04:38:19;10.30;75.80
64062;DHT22;50308;47.438;-1.528;2023-04-08T04:40:45;10.30;75.90
64062;DHT22;50308;47.438;-1.528;2023-04-08T04:43:11;10.40;75.80
64062;DHT22;50308;47.438;-1.528;2023-04-08T04:45:36;10.40;76.00
64062;DHT22;50308;47.438;-1.528;2023-04-08T04:48:02;10.40;76.10
64062;DHT22;50308;47.438;-1.528;2023-04-08T04:50:28;10.40;76.10
64062;DHT22;50308;47.438;-1.528;2023-04-08T04:52:54;10.40;75.80
64062;DHT22;50308;47.438;-1.528;2023-04-08T04:55:20;10.40;75.90
64062;DHT22;50308;47.438;-1.528;2023-04-08T04:57:47;10.40;76.00
64062;DHT22;50308;47.438;-1.528;2023-04-08T05:00:13;10.40;76.10
64062;DHT22;50308;47.438;-1.528;2023-04-08T05:02:39;10.40;76.00
64062;DHT22;50308;47.438;-1.528;2023-04-08T05:05:05;10.40;75.90
64062;DHT22;50308;47.438;-1.528;2023-04-08T05:07:34;10.30;76.00
64062;DHT22;50308;47.438;-1.528;2023-04-08T05:09:59;10.40;76.00
64062;DHT22;50308;47.438;-1.528;2023-04-08T05:12:26;10.40;76.00
64062;DHT22;50308;47.438;-1.528;2023-04-08T05:14:51;10.40;76.10
64062;DHT22;50308;47.438;-1.528;2023-04-08T05:17:17;10.40;76.20
64062;DHT22;50308;47.438;-1.528;2023-04-08T05:19:43;10.40;76.30
64062;DHT22;50308;47.438;-1.528;2023-04-08T05:22:08;10.40;76.30
64062;DHT22;50308;47.438;-1.528;2023-04-08T05:24:34;10.30;76.10
64062;DHT22;50308;47.438;-1.528;2023-04-08T05:27:00;10.40;76.50
64062;DHT22;50308;47.438;-1.528;2023-04-08T05:29:27;10.40;76.50
64062;DHT22;50308;47.438;-1.528;2023-04-08T05:31:52;10.30;76.40
64062;DHT22;50308;47.438;-1.528;2023-04-08T05:34:18;10.30;76.30
64062;DHT22;50308;47.438;-1.528;2023-04-08T05:36:48;10.30;76.50
64062;DHT22;50308;47.438;-1.528;2023-04-08T05:39:19;10.30;76.10
64062;DHT22;50308;47.438;-1.528;2023-04-08T05:41:45;10.30;76.50
64062;DHT22;50308;47.438;-1.528;2023-04-08T05:44:12;10.30;76.20
64062;DHT22;50308;47.438;-1.528;2023-04-08T05:46:41;10.30;76.20
64062;DHT22;50308;47.438;-1.528;2023-04-08T05:49:06;10.20;76.30
64062;DHT22;50308;47.438;-1.528;2023-04-08T05:51:32;10.30;77.50
64062;DHT22;50308;47.438;-1.528;2023-04-08T05:53:58;10.30;76.70
64062;DHT22;50308;47.438;-1.528;2023-04-08T05:56:23;10.30;76.20
64062;DHT22;50308;47.438;-1.528;2023-04-08T05:58:49;10.30;76.60
64062;DHT22;50308;47.438;-1.528;2023-04-08T06:01:15;10.30;76.80
64062;DHT22;50308;47.438;-1.528;2023-04-08T06:03:41;10.30;76.70
64062;DHT22;50308;47.438;-1.528;2023-04-08T06:06:10;10.30;76.70
64062;DHT22;50308;47.438;-1.528;2023-04-08T06:08:39;10.30;76.50
64062;DHT22;50308;47.438;-1.528;2023-04-08T06:11:05;10.30;76.70
64062;DHT22;50308;47.438;-1.528;2023-04-08T06:13:31;10.30;76.50
64062;DHT22;50308;47.438;-1.528;2023-04-08T06:15:58;10.40;76.60
64062;DHT22;50308;47.438;-1.528;2023-04-08T06:18:24;10.40;76.40
64062;DHT22;50308;47.438;-1.528;2023-04-08T06:20:49;10.30;76.40
64062;DHT22;50308;47.438;-1.528;2023-04-08T06:23:15;10.30;76.60
64062;DHT22;50308;47.438;-1.528;2023-04-08T06:25:41;10.40;76.40
64062;DHT22;50308;47.438;-1.528;2023-04-08T06:28:07;10.40;76.60
64062;DHT22;50308;47.438;-1.528;2023-04-08T06:30:33;10.40;76.70
64062;DHT22;50308;47.438;-1.528;2023-04-08T06:32:58;10.40;76.60
64062;DHT22;50308;47.438;-1.528;2023-04-08T06:35:24;10.50;77.00
64062;DHT22;50308;47.438;-1.528;2023-04-08T06:37:50;10.50;77.00
64062;DHT22;50308;47.438;-1.528;2023-04-08T06:40:15;10.60;77.00
64062;DHT22;50308;47.438;-1.528;2023-04-08T06:42:41;10.60;77.00
64062;DHT22;50308;47.438;-1.528;2023-04-08T06:45:09;10.70;77.00
64062;DHT22;50308;47.438;-1.528;2023-04-08T06:47:35;10.70;77.00
64062;DHT22;50308;47.438;-1.528;2023-04-08T06:50:01;10.80;76.60
64062;DHT22;50308;47.438;-1.528;2023-04-08T06:52:27;10.80;76.90
64062;DHT22;50308;47.438;-1.528;2023-04-08T06:54:52;10.80;76.90
64062;DHT22;50308;47.438;-1.528;2023-04-08T06:57:18;10.80;78.40
64062;DHT22;50308;47.438;-1.528;2023-04-08T06:59:43;10.80;77.20
64062;DHT22;50308;47.438;-1.528;2023-04-08T07:02:09;10.90;77.30
64062;DHT22;50308;47.438;-1.528;2023-04-08T07:04:35;10.90;77.30
64062;DHT22;50308;47.438;-1.528;2023-04-08T07:07:01;10.90;77.40
64062;DHT22;50308;47.438;-1.528;2023-04-08T07:09:26;10.90;77.60
64062;DHT22;50308;47.438;-1.528;2023-04-08T07:11:52;10.90;77.70
64062;DHT22;50308;47.438;-1.528;2023-04-08T07:14:18;11.00;77.90
64062;DHT22;50308;47.438;-1.528;2023-04-08T07:16:44;11.10;77.50
64062;DHT22;50308;47.438;-1.528;2023-04-08T07:19:10;11.00;77.60
64062;DHT22;50308;47.438;-1.528;2023-04-08T07:21:36;11.00;77.90
64062;DHT22;50308;47.438;-1.528;2023-04-08T07:24:01;11.10;77.90
64062;DHT22;50308;47.438;-1.528;2023-04-08T07:26:27;11.10;77.90
64062;DHT22;50308;47.438;-1.528;2023-04-08T07:28:53;11.20;77.90
64062;DHT22;50308;47.438;-1.528;2023-04-08T07:31:19;11.20;78.00
64062;DHT22;50308;47.438;-1.528;2023-04-08T07:33:45;11.20;78.00
64062;DHT22;50308;47.438;-1.528;2023-04-08T07:36:12;11.30;78.20
64062;DHT22;50308;47.438;-1.528;2023-04-08T07:38:38;11.30;77.90
64062;DHT22;50308;47.438;-1.528;2023-04-08T07:41:04;11.40;78.10
64062;DHT22;50308;47.438;-1.528;2023-04-08T07:43:30;11.40;77.90
64062;DHT22;50308;47.438;-1.528;2023-04-08T07:46:06;11.50;78.10
64062;DHT22;50308;47.438;-1.528;2023-04-08T07:48:33;11.50;78.20
64062;DHT22;50308;47.438;-1.528;2023-04-08T07:51:06;11.60;77.80
64062;DHT22;50308;47.438;-1.528;2023-04-08T07:53:32;11.60;77.50
64062;DHT22;50308;47.438;-1.528;2023-04-08T07:55:58;11.60;77.90
64062;DHT22;50308;47.438;-1.528;2023-04-08T07:58:24;11.60;78.10
64062;DHT22;50308;47.438;-1.528;2023-04-08T08:00:51;11.60;78.10
64062;DHT22;50308;47.438;-1.528;2023-04-08T08:03:17;11.70;78.20
64062;DHT22;50308;47.438;-1.528;2023-04-08T08:05:43;11.60;78.20
64062;DHT22;50308;47.438;-1.528;2023-04-08T08:08:08;11.70;78.40
64062;DHT22;50308;47.438;-1.528;2023-04-08T08:10:38;11.80;78.00
64062;DHT22;50308;47.438;-1.528;2023-04-08T08:13:04;11.80;78.40
64062;DHT22;50308;47.438;-1.528;2023-04-08T08:15:31;11.80;77.80
64062;DHT22;50308;47.438;-1.528;2023-04-08T08:17:56;12.00;77.50
64062;DHT22;50308;47.438;-1.528;2023-04-08T08:20:22;12.00;77.20
64062;DHT22;50308;47.438;-1.528;2023-04-08T08:22:48;12.00;77.30
64062;DHT22;50308;47.438;-1.528;2023-04-08T08:25:13;12.00;78.00
64062;DHT22;50308;47.438;-1.528;2023-04-08T08:27:39;12.00;77.80
64062;DHT22;50308;47.438;-1.528;2023-04-08T08:30:07;12.00;78.10
64062;DHT22;50308;47.438;-1.528;2023-04-08T08:32:34;12.00;78.40
64062;DHT22;50308;47.438;-1.528;2023-04-08T08:35:00;12.00;78.70
64062;DHT22;50308;47.438;-1.528;2023-04-08T08:37:26;12.00;78.30
64062;DHT22;50308;47.438;-1.528;2023-04-08T08:39:51;12.10;77.80
64062;DHT22;50308;47.438;-1.528;2023-04-08T08:42:24;12.10;78.80
64062;DHT22;50308;47.438;-1.528;2023-04-08T08:44:50;12.00;78.80
64062;DHT22;50308;47.438;-1.528;2023-04-08T08:47:17;12.10;79.00
64062;DHT22;50308;47.438;-1.528;2023-04-08T08:49:43;12.10;78.90
64062;DHT22;50308;47.438;-1.528;2023-04-08T08:52:10;12.10;77.40
64062;DHT22;50308;47.438;-1.528;2023-04-08T08:54:36;12.20;76.60
64062;DHT22;50308;47.438;-1.528;2023-04-08T08:57:02;12.30;76.50
64062;DHT22;50308;47.438;-1.528;2023-04-08T08:59:28;12.30;76.20
64062;DHT22;50308;47.438;-1.528;2023-04-08T09:01:53;12.30;77.10
64062;DHT22;50308;47.438;-1.528;2023-04-08T09:04:21;12.30;78.70
64062;DHT22;50308;47.438;-1.528;2023-04-08T09:06:49;12.30;77.90
64062;DHT22;50308;47.438;-1.528;2023-04-08T09:09:16;12.30;79.70
64062;DHT22;50308;47.438;-1.528;2023-04-08T09:11:43;12.30;78.40
64062;DHT22;50308;47.438;-1.528;2023-04-08T09:14:25;12.40;76.70
64062;DHT22;50308;47.438;-1.528;2023-04-08T09:16:51;12.40;79.20
64062;DHT22;50308;47.438;-1.528;2023-04-08T09:19:17;12.40;76.30
64062;DHT22;50308;47.438;-1.528;2023-04-08T09:21:43;12.40;76.70
64062;DHT22;50308;47.438;-1.528;2023-04-08T09:24:26;12.40;76.20
64062;DHT22;50308;47.438;-1.528;2023-04-08T09:26:53;12.50;76.20
64062;DHT22;50308;47.438;-1.528;2023-04-08T09:29:22;12.50;76.20
64062;DHT22;50308;47.438;-1.528;2023-04-08T09:31:56;12.60;76.30
64062;DHT22;50308;47.438;-1.528;2023-04-08T09:34:22;12.60;77.30
64062;DHT22;50308;47.438;-1.528;2023-04-08T09:36:49;12.60;76.50
64062;DHT22;50308;47.438;-1.528;2023-04-08T09:39:15;12.60;76.20
64062;DHT22;50308;47.438;-1.528;2023-04-08T09:41:42;12.60;76.40
64062;DHT22;50308;47.438;-1.528;2023-04-08T09:44:10;12.60;76.40
64062;DHT22;50308;47.438;-1.528;2023-04-08T09:49:32;12.70;76.20
64062;DHT22;50308;47.438;-1.528;2023-04-08T09:54:54;12.70;76.70
64062;DHT22;50308;47.438;-1.528;2023-04-08T09:57:43;12.70;76.50
64062;DHT22;50308;47.438;-1.528;2023-04-08T10:00:12;12.70;76.70
64062;DHT22;50308;47.438;-1.528;2023-04-08T10:05:14;12.70;76.20
64062;DHT22;50308;47.438;-1.528;2023-04-08T10:07:41;12.70;76.40
64062;DHT22;50308;47.438;-1.528;2023-04-08T10:10:07;12.70;76.30
64062;DHT22;50308;47.438;-1.528;2023-04-08T10:12:36;12.80;76.60
64062;DHT22;50308;47.438;-1.528;2023-04-08T10:17:50;12.80;76.60
64062;DHT22;50308;47.438;-1.528;2023-04-08T10:23:08;12.80;76.40
64062;DHT22;50308;47.438;-1.528;2023-04-08T10:25:41;12.80;77.20
64062;DHT22;50308;47.438;-1.528;2023-04-08T10:30:40;12.80;76.60
64062;DHT22;50308;47.438;-1.528;2023-04-08T10:33:43;12.80;76.60
64062;DHT22;50308;47.438;-1.528;2023-04-08T10:36:11;12.90;76.70
64062;DHT22;50308;47.438;-1.528;2023-04-08T10:38:41;12.90;77.10
64062;DHT22;50308;47.438;-1.528;2023-04-08T10:41:09;12.90;76.80
64062;DHT22;50308;47.438;-1.528;2023-04-08T10:43:35;12.90;76.80
64062;DHT22;50308;47.438;-1.528;2023-04-08T10:46:02;12.90;76.90
64062;DHT22;50308;47.438;-1.528;2023-04-08T10:48:29;12.90;76.80
64062;DHT22;50308;47.438;-1.528;2023-04-08T10:51:02;12.90;76.90
64062;DHT22;50308;47.438;-1.528;2023-04-08T10:53:32;12.90;77.00
64062;DHT22;50308;47.438;-1.528;2023-04-08T10:56:07;12.90;76.90
64062;DHT22;50308;47.438;-1.528;2023-04-08T10:58:53;12.90;76.90
64062;DHT22;50308;47.438;-1.528;2023-04-08T11:01:22;12.90;76.90
64062;DHT22;50308;47.438;-1.528;2023-04-08T11:03:48;12.90;77.10
64062;DHT22;50308;47.438;-1.528;2023-04-08T11:06:14;13.00;77.00
64062;DHT22;50308;47.438;-1.528;2023-04-08T11:08:40;13.00;76.90
64062;DHT22;50308;47.438;-1.528;2023-04-08T11:11:06;13.00;77.00
64062;DHT22;50308;47.438;-1.528;2023-04-08T11:13:38;13.00;77.10
64062;DHT22;50308;47.438;-1.528;2023-04-08T11:16:05;13.00;77.00
64062;DHT22;50308;47.438;-1.528;2023-04-08T11:18:33;13.00;76.80
64062;DHT22;50308;47.438;-1.528;2023-04-08T11:20:59;13.00;76.80
64062;DHT22;50308;47.438;-1.528;2023-04-08T11:23:26;13.00;76.90
64062;DHT22;50308;47.438;-1.528;2023-04-08T11:25:52;13.00;77.00
64062;DHT22;50308;47.438;-1.528;2023-04-08T11:28:19;13.00;77.00
64062;DHT22;50308;47.438;-1.528;2023-04-08T11:30:45;13.00;77.00
64062;DHT22;50308;47.438;-1.528;2023-04-08T11:33:13;13.00;76.90
64062;DHT22;50308;47.438;-1.528;2023-04-08T11:35:42;13.00;76.80
64062;DHT22;50308;47.438;-1.528;2023-04-08T11:38:09;13.00;76.80
64062;DHT22;50308;47.438;-1.528;2023-04-08T11:40:36;13.10;76.80
64062;DHT22;50308;47.438;-1.528;2023-04-08T11:43:09;13.10;76.90
64062;DHT22;50308;47.438;-1.528;2023-04-08T11:45:38;13.10;76.90
64062;DHT22;50308;47.438;-1.528;2023-04-08T11:48:12;13.10;76.60
64062;DHT22;50308;47.438;-1.528;2023-04-08T11:50:39;13.10;76.60
64062;DHT22;50308;47.438;-1.528;2023-04-08T11:53:19;13.10;76.60
64062;DHT22;50308;47.438;-1.528;2023-04-08T11:55:45;13.10;76.60
64062;DHT22;50308;47.438;-1.528;2023-04-08T11:58:11;13.10;76.60
64062;DHT22;50308;47.438;-1.528;2023-04-08T12:00:37;13.10;76.60
64062;DHT22;50308;47.438;-1.528;2023-04-08T12:03:03;13.10;76.70
64062;DHT22;50308;47.438;-1.528;2023-04-08T12:05:29;13.10;76.70
64062;DHT22;50308;47.438;-1.528;2023-04-08T12:07:54;13.20;76.40
64062;DHT22;50308;47.438;-1.528;2023-04-08T12:10:21;13.20;76.40
64062;DHT22;50308;47.438;-1.528;2023-04-08T12:12:46;13.20;76.40
64062;DHT22;50308;47.438;-1.528;2023-04-08T12:15:12;13.20;76.50
64062;DHT22;50308;47.438;-1.528;2023-04-08T12:17:38;13.20;76.50
64062;DHT22;50308;47.438;-1.528;2023-04-08T12:20:05;13.20;76.40
64062;DHT22;50308;47.438;-1.528;2023-04-08T12:22:31;13.20;76.30
64062;DHT22;50308;47.438;-1.528;2023-04-08T12:24:56;13.20;76.50
64062;DHT22;50308;47.438;-1.528;2023-04-08T12:27:22;13.20;76.30
64062;DHT22;50308;47.438;-1.528;2023-04-08T12:29:48;13.20;76.30
64062;DHT22;50308;47.438;-1.528;2023-04-08T12:32:14;13.30;76.50
64062;DHT22;50308;47.438;-1.528;2023-04-08T12:34:40;13.20;76.50
64062;DHT22;50308;47.438;-1.528;2023-04-08T12:37:06;13.30;76.20
64062;DHT22;50308;47.438;-1.528;2023-04-08T12:39:32;13.30;76.00
64062;DHT22;50308;47.438;-1.528;2023-04-08T12:41:57;13.30;76.00
64062;DHT22;50308;47.438;-1.528;2023-04-08T12:44:24;13.30;76.20
64062;DHT22;50308;47.438;-1.528;2023-04-08T12:46:49;13.30;76.20
64062;DHT22;50308;47.438;-1.528;2023-04-08T12:49:15;13.30;76.20
64062;DHT22;50308;47.438;-1.528;2023-04-08T12:51:41;13.30;76.20
64062;DHT22;50308;47.438;-1.528;2023-04-08T12:54:07;13.30;76.20
64062;DHT22;50308;47.438;-1.528;2023-04-08T12:56:33;13.30;76.30
64062;DHT22;50308;47.438;-1.528;2023-04-08T12:58:59;13.30;76.30
64062;DHT22;50308;47.438;-1.528;2023-04-08T13:01:25;13.30;76.30
64062;DHT22;50308;47.438;-1.528;2023-04-08T13:03:51;13.30;76.40
64062;DHT22;50308;47.438;-1.528;2023-04-08T13:06:17;13.30;76.50
64062;DHT22;50308;47.438;-1.528;2023-04-08T13:08:42;13.30;76.50
64062;DHT22;50308;47.438;-1.528;2023-04-08T13:11:08;13.30;76.60
64062;DHT22;50308;47.438;-1.528;2023-04-08T13:13:34;13.30;76.60
64062;DHT22;50308;47.438;-1.528;2023-04-08T13:16:01;13.30;76.60
64062;DHT22;50308;47.438;-1.528;2023-04-08T13:18:27;13.40;76.60
64062;DHT22;50308;47.438;-1.528;2023-04-08T13:20:52;13.40;77.70
64062;DHT22;50308;47.438;-1.528;2023-04-08T13:23:19;13.40;76.70
64062;DHT22;50308;47.438;-1.528;2023-04-08T13:25:45;13.40;76.90
64062;DHT22;50308;47.438;-1.528;2023-04-08T13:28:11;13.40;76.80
64062;DHT22;50308;47.438;-1.528;2023-04-08T13:30:37;13.40;76.90
64062;DHT22;50308;47.438;-1.528;2023-04-08T13:33:03;13.40;76.90
64062;DHT22;50308;47.438;-1.528;2023-04-08T13:35:28;13.40;76.90
64062;DHT22;50308;47.438;-1.528;2023-04-08T13:37:54;13.40;76.90
64062;DHT22;50308;47.438;-1.528;2023-04-08T13:40:20;13.40;77.00
64062;DHT22;50308;47.438;-1.528;2023-04-08T13:42:46;13.40;76.90
64062;DHT22;50308;47.438;-1.528;2023-04-08T13:45:12;13.40;76.90
64062;DHT22;50308;47.438;-1.528;2023-04-08T13:47:38;13.40;76.90
64062;DHT22;50308;47.438;-1.528;2023-04-08T13:50:05;13.40;76.90
64062;DHT22;50308;47.438;-1.528;2023-04-08T13:52:31;13.50;77.00
64062;DHT22;50308;47.438;-1.528;2023-04-08T13:54:57;13.40;77.00
64062;DHT22;50308;47.438;-1.528;2023-04-08T13:57:22;13.40;77.10
64062;DHT22;50308;47.438;-1.528;2023-04-08T13:59:48;13.50;77.20
64062;DHT22;50308;47.438;-1.528;2023-04-08T14:02:14;13.50;77.20
64062;DHT22;50308;47.438;-1.528;2023-04-08T14:04:39;13.50;77.20
64062;DHT22;50308;47.438;-1.528;2023-04-08T14:07:05;13.50;77.10
64062;DHT22;50308;47.438;-1.528;2023-04-08T14:09:31;13.50;77.20
64062;DHT22;50308;47.438;-1.528;2023-04-08T14:11:57;13.50;77.10
64062;DHT22;50308;47.438;-1.528;2023-04-08T14:14:23;13.50;77.10
64062;DHT22;50308;47.438;-1.528;2023-04-08T14:16:49;13.50;77.20
64062;DHT22;50308;47.438;-1.528;2023-04-08T14:19:15;13.50;77.20
64062;DHT22;50308;47.438;-1.528;2023-04-08T14:21:41;13.50;77.10
64062;DHT22;50308;47.438;-1.528;2023-04-08T14:24:06;13.60;77.20
64062;DHT22;50308;47.438;-1.528;2023-04-08T14:26:32;13.60;77.30
64062;DHT22;50308;47.438;-1.528;2023-04-08T14:29:04;13.60;77.30
64062;DHT22;50308;47.438;-1.528;2023-04-08T14:31:31;13.60;77.30
64062;DHT22;50308;47.438;-1.528;2023-04-08T14:33:58;13.60;77.20
64062;DHT22;50308;47.438;-1.528;2023-04-08T14:36:24;13.60;77.20
64062;DHT22;50308;47.438;-1.528;2023-04-08T14:38:51;13.60;77.20
64062;DHT22;50308;47.438;-1.528;2023-04-08T14:41:17;13.60;77.20
64062;DHT22;50308;47.438;-1.528;2023-04-08T14:43:42;13.60;77.50
64062;DHT22;50308;47.438;-1.528;2023-04-08T14:46:08;13.60;77.40
64062;DHT22;50308;47.438;-1.528;2023-04-08T14:48:33;13.60;77.40
64062;DHT22;50308;47.438;-1.528;2023-04-08T14:50:59;13.60;77.30
64062;DHT22;50308;47.438;-1.528;2023-04-08T14:53:25;13.70;77.50
64062;DHT22;50308;47.438;-1.528;2023-04-08T14:55:51;13.70;77.30
64062;DHT22;50308;47.438;-1.528;2023-04-08T14:58:17;13.70;77.30
64062;DHT22;50308;47.438;-1.528;2023-04-08T15:00:44;13.60;77.30
64062;DHT22;50308;47.438;-1.528;2023-04-08T15:03:12;13.70;77.40
64062;DHT22;50308;47.438;-1.528;2023-04-08T15:05:38;13.70;78.40
64062;DHT22;50308;47.438;-1.528;2023-04-08T15:08:04;13.70;77.40
64062;DHT22;50308;47.438;-1.528;2023-04-08T15:10:30;13.70;77.30
64062;DHT22;50308;47.438;-1.528;2023-04-08T15:12:57;13.70;77.40
64062;DHT22;50308;47.438;-1.528;2023-04-08T15:15:22;13.70;77.30
64062;DHT22;50308;47.438;-1.528;2023-04-08T15:17:48;13.70;77.30
64062;DHT22;50308;47.438;-1.528;2023-04-08T15:20:14;13.70;77.30
64062;DHT22;50308;47.438;-1.528;2023-04-08T15:22:40;13.70;77.30
64062;DHT22;50308;47.438;-1.528;2023-04-08T15:25:06;13.70;77.20
64062;DHT22;50308;47.438;-1.528;2023-04-08T15:27:32;13.70;77.20
64062;DHT22;50308;47.438;-1.528;2023-04-08T15:29:59;13.70;77.20
64062;DHT22;50308;47.438;-1.528;2023-04-08T15:32:24;13.80;77.20
64062;DHT22;50308;47.438;-1.528;2023-04-08T15:34:50;13.80;77.20